createdAt,value
2022-12-31T00:03:27.638Z,46.90
2022-12-31T00:05:54.525Z,53.20
2022-12-31T00:08:21.224Z,47.00
2022-12-31T00:10:47.984Z,41.90
2022-12-31T00:13:14.793Z,36.20
2022-12-31T00:18:08.428Z,30.50
2022-12-31T00:23:01.905Z,33.80
2022-12-31T00:25:28.587Z,36.80
2022-12-31T00:27:55.875Z,39.90
2022-12-31T00:30:22.546Z,35.10
2022-12-31T00:32:49.234Z,36.20
2022-12-31T00:35:15.928Z,34.30
2022-12-31T00:37:42.607Z,34.50
2022-12-31T00:40:10.284Z,30.70
2022-12-31T00:42:36.985Z,33.40
2022-12-31T00:45:04.192Z,30.60
2022-12-31T00:47:30.928Z,34.30
2022-12-31T00:49:57.608Z,37.40
2022-12-31T00:52:24.284Z,41.80
2022-12-31T00:54:51.049Z,51.70
2022-12-31T00:57:17.768Z,43.20
2022-12-31T00:59:44.511Z,53.70
2022-12-31T01:02:11.476Z,51.60
2022-12-31T01:04:38.452Z,44.10
2022-12-31T01:07:05.264Z,37.40
2022-12-31T01:11:58.630Z,48.10
2022-12-31T01:14:25.296Z,37.60
2022-12-31T01:16:53.183Z,41.80
2022-12-31T01:19:25.421Z,43.80
2022-12-31T01:21:52.222Z,56.50
2022-12-31T01:24:19.247Z,46.50
2022-12-31T01:26:46.084Z,45.10
2022-12-31T01:31:39.855Z,41.30
2022-12-31T01:34:06.808Z,35.90
2022-12-31T01:39:10.174Z,33.50
2022-12-31T01:41:41.711Z,35.60
2022-12-31T01:44:11.538Z,30.10
2022-12-31T01:46:43.925Z,25.80
2022-12-31T01:49:17.710Z,26.90
2022-12-31T01:51:46.313Z,25.70
2022-12-31T01:54:13.350Z,35.80
2022-12-31T01:56:40.093Z,31.60
2022-12-31T01:59:07.932Z,24.30
2022-12-31T02:01:34.953Z,31.80
2022-12-31T02:04:05.238Z,28.40
2022-12-31T02:06:50.491Z,36.30
2022-12-31T02:09:17.245Z,25.70
2022-12-31T02:11:43.952Z,30.50
2022-12-31T02:14:15.931Z,24.90
2022-12-31T02:16:57.637Z,24.30
2022-12-31T02:19:49.225Z,23.90
2022-12-31T02:22:19.011Z,29.20
2022-12-31T02:24:50.632Z,27.30
2022-12-31T02:27:33.019Z,25.30
2022-12-31T02:30:05.850Z,25.50
2022-12-31T02:32:49.778Z,26.20
2022-12-31T02:35:25.469Z,24.90
2022-12-31T02:37:54.920Z,27.90
2022-12-31T02:40:22.329Z,27.70
2022-12-31T02:42:55.032Z,32.80
2022-12-31T02:45:27.103Z,27.40
2022-12-31T02:48:05.426Z,27.80
2022-12-31T02:50:34.962Z,31.60
2022-12-31T02:53:39.299Z,25.90
2022-12-31T02:56:13.109Z,24.20
2022-12-31T02:59:11.661Z,30.90
2022-12-31T03:04:34.133Z,28.30
2022-12-31T03:07:07.391Z,30.80
2022-12-31T03:09:34.992Z,32.80
2022-12-31T03:12:20.373Z,33.40
2022-12-31T03:14:47.119Z,31.80
2022-12-31T03:17:13.827Z,33.10
2022-12-31T03:19:59.457Z,29.60
2022-12-31T03:22:29.092Z,33.50
2022-12-31T03:25:19.152Z,32.90
2022-12-31T03:27:46.268Z,31.80
2022-12-31T03:30:14.015Z,27.80
2022-12-31T03:32:41.452Z,31.40
2022-12-31T03:35:09.019Z,30.70
2022-12-31T03:37:35.753Z,27.70
2022-12-31T03:40:02.428Z,29.70
2022-12-31T03:42:29.193Z,36.20
2022-12-31T03:44:55.903Z,37.70
2022-12-31T03:47:22.624Z,39.40
2022-12-31T03:49:49.418Z,36.90
2022-12-31T03:52:16.113Z,34.20
2022-12-31T03:54:42.818Z,33.80
2022-12-31T03:59:36.538Z,39.00
2022-12-31T04:02:03.385Z,39.00
2022-12-31T04:04:30.499Z,32.00
2022-12-31T04:09:24.049Z,32.00
2022-12-31T04:14:17.791Z,36.50
2022-12-31T04:19:12.837Z,32.80
2022-12-31T04:24:07.010Z,30.30
2022-12-31T04:26:33.893Z,26.80
2022-12-31T04:31:27.354Z,22.60
2022-12-31T04:36:20.724Z,30.70
2022-12-31T04:41:17.045Z,31.70
2022-12-31T04:43:45.257Z,29.10
2022-12-31T04:46:11.981Z,27.20
2022-12-31T04:48:38.702Z,39.20
2022-12-31T04:51:05.543Z,34.80
2022-12-31T04:53:32.284Z,36.00
2022-12-31T04:55:59.012Z,39.60
2022-12-31T04:58:25.730Z,39.40
2022-12-31T05:00:54.508Z,40.30
2022-12-31T05:03:22.379Z,34.30
2022-12-31T05:05:50.094Z,38.30
2022-12-31T05:08:17.324Z,39.90
2022-12-31T05:10:48.527Z,37.40
2022-12-31T05:13:15.464Z,46.90
2022-12-31T05:18:08.892Z,41.30
2022-12-31T05:20:35.657Z,37.40
2022-12-31T05:25:29.034Z,42.50
2022-12-31T05:27:55.709Z,37.60
2022-12-31T05:30:22.660Z,38.60
2022-12-31T05:33:08.508Z,46.50
2022-12-31T05:35:35.253Z,34.40
2022-12-31T05:38:01.999Z,34.20
2022-12-31T05:40:28.687Z,33.80
2022-12-31T05:42:55.409Z,31.70
2022-12-31T05:45:28.345Z,29.80
2022-12-31T05:47:57.454Z,40.30
2022-12-31T05:52:54.303Z,33.60
2022-12-31T05:55:21.117Z,30.40
2022-12-31T06:00:14.991Z,30.70
2022-12-31T06:02:42.207Z,23.90
2022-12-31T06:07:35.835Z,24.10
2022-12-31T06:10:05.257Z,25.30
2022-12-31T06:12:31.964Z,24.30
2022-12-31T06:14:58.776Z,29.20
2022-12-31T06:17:25.548Z,39.80
2022-12-31T06:19:52.796Z,44.60
2022-12-31T06:22:19.464Z,35.00
2022-12-31T06:24:46.741Z,32.60
2022-12-31T06:29:40.168Z,28.60
2022-12-31T06:32:07.086Z,30.30
2022-12-31T06:34:33.821Z,32.80
2022-12-31T06:39:27.499Z,28.50
2022-12-31T06:44:22.541Z,32.80
2022-12-31T06:46:50.070Z,33.50
2022-12-31T06:49:16.934Z,38.50
2022-12-31T06:51:46.005Z,38.40
2022-12-31T06:54:13.640Z,31.50
2022-12-31T06:56:40.857Z,33.00
2022-12-31T06:59:24.357Z,34.50
2022-12-31T07:02:03.777Z,40.50
2022-12-31T07:05:15.723Z,38.40
2022-12-31T07:07:52.063Z,33.70
2022-12-31T07:10:36.534Z,33.50
2022-12-31T07:13:21.649Z,34.80
2022-12-31T07:16:00.294Z,36.30
2022-12-31T07:19:02.635Z,39.50
2022-12-31T07:21:35.105Z,40.30
2022-12-31T07:24:02.462Z,36.90
2022-12-31T07:26:52.613Z,41.30
2022-12-31T07:29:25.751Z,35.60
2022-12-31T07:32:02.194Z,40.60
2022-12-31T07:34:42.125Z,43.80
2022-12-31T07:38:00.024Z,42.20
2022-12-31T07:41:09.803Z,39.70
2022-12-31T07:44:27.644Z,40.60
2022-12-31T07:46:59.394Z,39.40
2022-12-31T07:49:27.184Z,38.40
2022-12-31T07:51:54.263Z,35.20
2022-12-31T07:54:21.346Z,41.50
2022-12-31T07:56:48.663Z,52.50
2022-12-31T07:59:24.769Z,55.80
2022-12-31T08:02:32.713Z,56.30
2022-12-31T08:05:02.322Z,49.20
2022-12-31T08:08:04.194Z,59.30
2022-12-31T08:10:52.384Z,47.60
2022-12-31T08:13:19.126Z,48.70
2022-12-31T08:15:46.128Z,44.30
2022-12-31T08:18:13.113Z,47.00
2022-12-31T08:20:54.405Z,51.10
2022-12-31T08:23:39.391Z,42.70
2022-12-31T08:26:13.217Z,43.30
2022-12-31T08:28:55.147Z,43.20
2022-12-31T08:31:49.703Z,40.70
2022-12-31T08:34:34.699Z,41.20
2022-12-31T08:37:06.311Z,46.50
2022-12-31T08:39:50.647Z,46.30
2022-12-31T08:42:25.708Z,54.40
2022-12-31T08:45:01.454Z,48.10
2022-12-31T08:48:06.079Z,43.10
2022-12-31T08:50:33.098Z,47.90
2022-12-31T08:53:00.350Z,90.20
2022-12-31T08:55:27.543Z,67.50
2022-12-31T08:58:06.478Z,111.90
2022-12-31T09:00:33.334Z,80.80
2022-12-31T09:06:08.483Z,45.20
2022-12-31T09:08:51.782Z,43.20
2022-12-31T09:11:43.336Z,58.40
2022-12-31T09:14:15.879Z,65.50
2022-12-31T09:16:46.206Z,54.60
2022-12-31T09:19:13.144Z,40.90
2022-12-31T09:24:13.191Z,73.70
2022-12-31T09:27:01.663Z,63.20
2022-12-31T09:29:40.290Z,46.80
2022-12-31T09:32:27.108Z,32.90
2022-12-31T09:35:11.260Z,36.10
2022-12-31T09:37:40.945Z,28.80
2022-12-31T09:40:32.696Z,33.60
2022-12-31T09:43:18.710Z,32.70
2022-12-31T09:46:11.802Z,31.30
2022-12-31T09:49:00.599Z,31.00
2022-12-31T09:51:31.713Z,30.60
2022-12-31T09:54:07.844Z,43.00
2022-12-31T09:57:19.164Z,57.80
2022-12-31T09:59:48.164Z,40.90
2022-12-31T10:02:18.568Z,34.80
2022-12-31T10:04:57.329Z,32.00
2022-12-31T10:07:39.056Z,42.90
2022-12-31T10:10:18.877Z,52.00
2022-12-31T10:12:52.487Z,51.20
2022-12-31T10:15:40.471Z,41.10
2022-12-31T10:20:52.347Z,37.80
2022-12-31T10:23:34.357Z,31.80
2022-12-31T15:35:22.391Z,49.20
2022-12-31T15:38:00.343Z,52.80
2022-12-31T15:40:28.855Z,42.20
2022-12-31T15:43:04.708Z,41.60
2022-12-31T15:45:39.223Z,37.00
2022-12-31T15:48:08.993Z,43.20
2022-12-31T15:50:36.272Z,57.70
2022-12-31T15:53:03.679Z,68.40
2022-12-31T15:55:33.467Z,49.00
2022-12-31T15:58:05.263Z,45.40
2022-12-31T16:00:58.857Z,47.50
2022-12-31T16:03:27.138Z,49.90
2022-12-31T16:06:09.601Z,47.50
2022-12-31T16:08:36.411Z,54.70
2022-12-31T16:11:04.773Z,59.90
2022-12-31T16:13:31.586Z,48.50
2022-12-31T16:18:39.426Z,41.50
2022-12-31T16:21:06.644Z,46.00
2022-12-31T16:23:36.215Z,41.10
2022-12-31T16:26:08.777Z,40.80
2022-12-31T16:28:35.521Z,44.60
2022-12-31T16:31:03.135Z,50.60
2022-12-31T16:33:30.537Z,44.10
2022-12-31T16:35:58.048Z,50.10
2022-12-31T16:38:35.421Z,40.10
2022-12-31T16:43:42.191Z,43.70
2022-12-31T16:46:11.752Z,42.50
2022-12-31T16:48:38.578Z,42.10
2022-12-31T16:51:05.620Z,40.90
2022-12-31T16:56:08.651Z,37.80
2022-12-31T16:58:37.423Z,38.30
2022-12-31T17:01:18.355Z,38.30
2022-12-31T17:03:47.165Z,31.50
2022-12-31T17:06:18.021Z,39.50
2022-12-31T17:08:55.970Z,39.90
2022-12-31T17:11:34.897Z,31.60
2022-12-31T17:14:07.808Z,36.50
2022-12-31T17:16:35.326Z,36.40
2022-12-31T17:19:02.210Z,36.20
2022-12-31T17:23:59.453Z,39.10
2022-12-31T17:26:27.936Z,39.00
2022-12-31T17:28:55.655Z,40.20
2022-12-31T17:31:33.321Z,34.10
2022-12-31T17:34:21.512Z,28.80
2022-12-31T17:37:24.713Z,29.90
2022-12-31T17:39:52.616Z,33.00
2022-12-31T17:42:27.906Z,27.70
2022-12-31T17:44:57.066Z,31.00
2022-12-31T17:47:23.782Z,31.00
2022-12-31T17:49:50.569Z,38.20
2022-12-31T17:52:17.321Z,36.90
2022-12-31T17:57:21.841Z,32.40
2022-12-31T17:59:48.560Z,36.40
2022-12-31T18:02:15.282Z,32.70
2022-12-31T18:04:42.010Z,30.40
2022-12-31T18:07:08.745Z,29.80
2022-12-31T18:12:02.121Z,28.80
2022-12-31T18:14:28.868Z,32.40
2022-12-31T18:19:54.166Z,26.40
2022-12-31T18:22:13.538Z,31.80
2022-12-31T18:24:40.298Z,26.60
2022-12-31T18:27:15.876Z,29.90
2022-12-31T18:29:42.549Z,31.70
2022-12-31T18:32:19.061Z,25.50
2022-12-31T18:34:45.739Z,24.40
2022-12-31T18:37:17.894Z,26.00
2022-12-31T18:39:48.200Z,28.20
2022-12-31T18:44:43.050Z,25.20
2022-12-31T18:47:17.421Z,29.60
2022-12-31T18:49:45.096Z,26.20
2022-12-31T18:52:15.949Z,26.40
2022-12-31T18:54:42.764Z,30.60
2022-12-31T19:02:04.605Z,28.50
2022-12-31T19:04:31.392Z,24.70
2022-12-31T19:06:58.069Z,27.20
2022-12-31T19:09:45.107Z,28.70
2022-12-31T19:12:12.095Z,26.70
2022-12-31T19:14:38.824Z,25.30
2022-12-31T19:19:31.132Z,28.40
2022-12-31T19:21:57.845Z,28.90
2022-12-31T19:24:26.703Z,34.80
2022-12-31T19:26:54.038Z,33.80
2022-12-31T19:29:27.496Z,35.40
2022-12-31T19:31:54.287Z,35.00
2022-12-31T19:36:47.695Z,36.30
2022-12-31T19:39:18.657Z,32.10
2022-12-31T19:41:45.595Z,32.90
2022-12-31T19:44:21.411Z,28.80
2022-12-31T19:46:49.285Z,29.00
2022-12-31T19:49:16.089Z,26.40
2022-12-31T19:51:42.794Z,24.90
2022-12-31T19:54:10.870Z,26.60
2022-12-31T19:56:37.756Z,27.80
2022-12-31T19:59:08.914Z,29.90
2022-12-31T20:01:35.835Z,35.20
2022-12-31T20:04:02.705Z,26.70
2022-12-31T20:06:29.376Z,25.20
2022-12-31T20:08:56.531Z,24.50
2022-12-31T20:11:23.815Z,24.70
2022-12-31T20:13:52.228Z,24.80
2022-12-31T20:16:20.850Z,22.00
2022-12-31T20:18:47.976Z,23.80
2022-12-31T20:21:19.890Z,28.10
2022-12-31T20:23:47.641Z,27.60
2022-12-31T20:26:14.352Z,24.40
2022-12-31T20:28:41.052Z,22.90
2022-12-31T20:31:09.154Z,23.30
2022-12-31T20:33:35.999Z,22.50
2022-12-31T20:38:32.834Z,23.30
2022-12-31T20:41:06.652Z,22.00
2022-12-31T20:43:33.697Z,27.70
2022-12-31T20:46:08.111Z,27.10
2022-12-31T20:48:39.283Z,30.00
2022-12-31T20:51:06.183Z,32.90
2022-12-31T20:53:32.845Z,31.60
2022-12-31T20:56:04.400Z,25.00
2022-12-31T20:58:31.141Z,26.40
2022-12-31T21:00:58.208Z,28.30
2022-12-31T21:04:02.815Z,28.70
2022-12-31T21:06:11.907Z,31.60
2022-12-31T21:08:39.172Z,28.20
2022-12-31T21:11:28.724Z,32.20
2022-12-31T21:13:56.102Z,24.80
2022-12-31T21:16:23.080Z,25.00
2022-12-31T21:18:49.768Z,22.70
2022-12-31T21:21:16.525Z,22.50
2022-12-31T21:26:09.923Z,20.60
2022-12-31T21:28:37.071Z,25.60
2022-12-31T21:31:05.448Z,24.40
2022-12-31T21:33:32.362Z,22.20
2022-12-31T21:36:04.214Z,20.40
2022-12-31T21:38:31.336Z,35.50
2022-12-31T21:41:02.480Z,42.00
2022-12-31T21:43:29.138Z,26.60
2022-12-31T21:46:06.431Z,28.00
2022-12-31T21:51:12.847Z,25.20
2022-12-31T21:53:39.640Z,23.60
2022-12-31T21:56:09.801Z,24.60
2022-12-31T21:58:41.086Z,23.90
2022-12-31T22:01:26.600Z,22.10
2022-12-31T22:03:53.537Z,25.80
2022-12-31T22:08:51.991Z,24.20
2022-12-31T22:11:19.532Z,21.30
2022-12-31T22:13:46.333Z,27.20
2022-12-31T22:18:45.443Z,24.00
2022-12-31T22:23:54.112Z,19.70
2022-12-31T22:26:23.532Z,25.40
2022-12-31T22:28:50.279Z,25.70
2022-12-31T22:31:19.028Z,24.70
2022-12-31T22:33:46.055Z,23.10
2022-12-31T22:36:15.287Z,22.00
2022-12-31T22:38:43.287Z,20.60
2022-12-31T22:41:16.270Z,25.20
2022-12-31T22:43:44.743Z,28.30
2022-12-31T22:46:16.865Z,24.00
2022-12-31T22:48:44.005Z,26.10
2022-12-31T22:51:11.257Z,27.00
2022-12-31T22:53:41.288Z,24.40
2022-12-31T22:56:08.372Z,25.80
2022-12-31T22:58:35.213Z,22.00
2022-12-31T23:03:33.086Z,20.70
2022-12-31T23:06:00.004Z,20.80
2022-12-31T23:11:06.106Z,20.90
2022-12-31T23:13:59.300Z,25.60
2022-12-31T23:16:45.520Z,25.20
2022-12-31T23:19:30.872Z,25.30
2022-12-31T23:22:16.330Z,23.40
2022-12-31T23:24:43.065Z,21.80
2022-12-31T23:27:10.023Z,26.60
2022-12-31T23:29:45.585Z,20.00
2022-12-31T23:32:13.320Z,23.10
2022-12-31T23:34:39.996Z,21.40
2022-12-31T23:37:06.663Z,20.50
2022-12-31T23:39:33.371Z,23.70
2022-12-31T23:42:00.461Z,26.80
2022-12-31T23:44:27.841Z,25.10
2022-12-31T23:46:54.609Z,25.10
2022-12-31T23:51:47.976Z,23.60
2022-12-31T23:54:15.839Z,23.10
2022-12-31T23:56:42.554Z,33.10
2022-12-31T23:59:09.915Z,22.40
